Time;durP1;ratioP1;P1;durP2;ratioP2;P2;SDS_P1;SDS_P2;PMS_P1;PMS_P2;Temp;Humidity;BMP_temperature;BMP_pressure;BME280_temperature;BME280_humidity;BME280_pressure;Samples;Min_cycle;Max_cycle;Signal;HPM_P1;HPM_P2
2023/01/27 00:00:35;;;;;;;12.27;8.27;;;4.10;99.90;;;;;;4957490;28;20113;-65
2023/01/27 00:03:01;;;;;;;17.45;8.27;;;4.10;99.90;;;;;;4957313;28;20047;-64
2023/01/27 00:05:28;;;;;;;13.85;8.75;;;4.10;99.90;;;;;;4973852;28;20499;-64
2023/01/27 00:07:57;;;;;;;12.30;7.85;;;4.00;99.90;;;;;;4974754;28;20050;-64
2023/01/27 00:10:24;;;;;;;14.02;8.50;;;4.10;99.90;;;;;;4957223;28;20050;-65
2023/01/27 00:15:35;;;;;;;11.18;7.82;;;4.10;99.90;;;;;;4973462;28;20042;-64
2023/01/27 00:18:02;;;;;;;18.85;9.15;;;4.00;99.90;;;;;;4975090;28;20380;-64
2023/01/27 00:26:05;;;;;;;13.95;8.68;;;4.00;99.90;;;;;;4991828;28;20050;-64
2023/01/27 00:28:32;;;;;;;13.68;7.95;;;4.00;99.90;;;;;;4974213;28;20051;-63
2023/01/27 00:30:59;;;;;;;19.95;9.43;;;3.90;99.90;;;;;;4973897;28;20047;-63
2023/01/27 00:33:26;;;;;;;13.25;8.15;;;3.90;99.90;;;;;;4971559;28;20043;-64
2023/01/27 00:36:04;;;;;;;14.52;8.27;;;3.90;99.90;;;;;;4973992;28;20043;-65
2023/01/27 00:38:34;;;;;;;11.52;6.60;;;3.90;99.90;;;;;;4970554;28;20345;-66
2023/01/27 00:41:19;;;;;;;9.02;7.43;;;3.90;99.90;;;;;;4971929;28;20514;-65
2023/01/27 00:43:46;;;;;;;12.50;6.60;;;3.90;99.90;;;;;;4956728;28;20466;-65
2023/01/27 00:46:13;;;;;;;13.05;6.35;;;3.90;99.90;;;;;;4956330;28;20077;-64
2023/01/27 00:48:40;;;;;;;13.60;6.18;;;3.90;99.90;;;;;;4956961;28;20043;-64
2023/01/27 00:51:07;;;;;;;9.23;6.03;;;3.90;99.90;;;;;;4976110;28;20102;-64
2023/01/27 00:53:36;;;;;;;7.90;5.28;;;3.90;99.90;;;;;;4971858;28;20435;-63
2023/01/27 00:56:04;;;;;;;10.18;5.70;;;3.90;99.90;;;;;;4972363;28;20452;-63
2023/01/27 00:58:31;;;;;;;9.18;5.35;;;3.90;99.90;;;;;;4972292;28;20061;-63
2023/01/27 01:01:00;;;;;;;11.18;6.15;;;3.90;99.90;;;;;;4971597;28;20047;-63
2023/01/27 01:03:30;;;;;;;9.40;5.25;;;3.90;99.90;;;;;;4973787;28;20039;-63
2023/01/27 01:05:57;;;;;;;7.68;5.25;;;3.90;99.90;;;;;;4956740;28;20551;-62
2023/01/27 01:08:24;;;;;;;8.00;5.00;;;3.90;99.90;;;;;;4956276;28;20142;-63
2023/01/27 01:10:53;;;;;;;7.60;5.25;;;3.90;99.90;;;;;;4992006;28;20112;-62
2023/01/27 01:13:20;;;;;;;6.25;4.78;;;3.90;99.90;;;;;;4991968;28;20054;-63
2023/01/27 01:15:47;;;;;;;10.65;4.95;;;3.90;99.90;;;;;;4991388;28;20046;-63
2023/01/27 01:18:15;;;;;;;8.40;4.93;;;3.90;99.90;;;;;;4974420;28;20050;-63
2023/01/27 01:20:44;;;;;;;7.13;4.57;;;3.90;99.90;;;;;;4991662;28;20051;-62
2023/01/27 01:23:12;;;;;;;9.30;4.95;;;4.00;99.90;;;;;;4973546;28;20039;-63
2023/01/27 01:25:39;;;;;;;6.88;4.03;;;4.00;99.90;;;;;;4960121;28;20054;-64
2023/01/27 01:28:09;;;;;;;7.28;4.07;;;3.90;99.90;;;;;;4960078;28;20047;-63
2023/01/27 01:30:36;;;;;;;6.55;4.75;;;4.00;99.90;;;;;;4976650;28;20047;-64
2023/01/27 01:33:04;;;;;;;5.25;3.70;;;4.00;99.90;;;;;;4959895;28;20054;-63
2023/01/27 01:35:31;;;;;;;10.13;4.00;;;4.00;99.90;;;;;;4976887;28;20051;-63
2023/01/27 01:37:58;;;;;;;7.70;4.13;;;4.00;99.90;;;;;;4973572;28;20513;-64
2023/01/27 01:40:25;;;;;;;8.27;4.25;;;4.00;99.90;;;;;;4977041;28;20105;-63
2023/01/27 01:42:57;;;;;;;8.23;4.00;;;4.00;99.90;;;;;;4974674;28;20062;-63
2023/01/27 01:45:48;;;;;;;7.15;3.33;;;4.00;99.90;;;;;;4976849;28;20525;-62
2023/01/27 01:48:21;;;;;;;8.55;3.97;;;4.00;99.90;;;;;;4959686;28;20050;-63
2023/01/27 01:50:53;;;;;;;11.85;4.05;;;4.10;99.90;;;;;;4976265;28;20047;-63
2023/01/27 01:53:21;;;;;;;5.70;3.92;;;4.00;99.90;;;;;;4959864;28;20395;-63
2023/01/27 01:55:49;;;;;;;6.95;3.80;;;4.10;99.90;;;;;;4959728;28;20571;-63
2023/01/27 01:58:16;;;;;;;5.38;3.33;;;4.00;99.90;;;;;;4976445;28;20046;-64
2023/01/27 02:00:43;;;;;;;8.65;3.60;;;4.10;99.90;;;;;;4976607;28;20415;-64
2023/01/27 02:03:11;;;;;;;7.07;3.75;;;4.00;99.90;;;;;;4972942;28;20039;-64
2023/01/27 02:05:43;;;;;;;8.13;3.47;;;4.00;99.90;;;;;;4974510;28;20114;-64
2023/01/27 02:08:15;;;;;;;6.90;3.53;;;4.00;99.90;;;;;;4975258;28;20051;-63
2023/01/27 02:10:42;;;;;;;12.32;3.70;;;4.00;99.90;;;;;;4974385;28;20446;-63
2023/01/27 02:13:09;;;;;;;6.03;3.13;;;4.00;99.90;;;;;;4959506;28;20381;-63
2023/01/27 02:15:36;;;;;;;8.52;3.90;;;4.00;99.90;;;;;;4976561;28;20043;-63
2023/01/27 02:18:04;;;;;;;7.18;2.97;;;4.00;99.90;;;;;;4958626;28;20047;-64
2023/01/27 02:20:40;;;;;;;6.50;2.47;;;4.00;99.90;;;;;;4976215;28;20723;-61
2023/01/27 02:23:18;;;;;;;5.55;2.20;;;4.00;99.90;;;;;;4959327;28;20043;-62
2023/01/27 02:25:53;;;;;;;4.82;2.50;;;4.00;99.90;;;;;;4976639;28;20523;-63
2023/01/27 02:28:20;;;;;;;5.20;2.00;;;4.10;99.90;;;;;;4994714;28;20104;-63
2023/01/27 02:30:47;;;;;;;5.40;1.90;;;4.10;99.90;;;;;;4994322;28;20042;-62
2023/01/27 02:33:16;;;;;;;4.90;2.10;;;4.10;99.90;;;;;;4993940;28;20066;-62
2023/01/27 02:35:51;;;;;;;5.20;2.03;;;4.10;99.90;;;;;;4976581;28;20062;-63
2023/01/27 02:38:19;;;;;;;7.35;2.03;;;4.10;99.90;;;;;;4977309;28;20120;-63
2023/01/27 02:40:50;;;;;;;3.10;2.00;;;4.10;99.90;;;;;;4993923;28;20049;-63
2023/01/27 02:43:17;;;;;;;3.78;2.17;;;4.10;99.90;;;;;;4994415;28;20529;-63
2023/01/27 02:45:46;;;;;;;2.90;1.80;;;4.10;99.90;;;;;;4976283;28;20573;-63
2023/01/27 02:48:13;;;;;;;7.90;1.95;;;4.10;99.90;;;;;;4977185;28;20061;-63
2023/01/27 02:50:40;;;;;;;7.03;2.25;;;4.00;99.90;;;;;;4976784;28;20438;-63
2023/01/27 02:53:07;;;;;;;4.00;1.83;;;4.00;99.90;;;;;;4976558;28;20050;-63
2023/01/27 02:55:34;;;;;;;4.22;1.80;;;4.00;99.90;;;;;;4971756;28;20058;-62
2023/01/27 02:58:02;;;;;;;3.55;2.33;;;4.00;99.90;;;;;;4975802;28;20054;-61
2023/01/27 03:00:29;;;;;;;5.15;2.00;;;4.00;99.90;;;;;;4973378;28;20054;-62
2023/01/27 03:02:56;;;;;;;5.30;1.77;;;4.00;99.90;;;;;;4975666;28;20101;-62
2023/01/27 03:05:23;;;;;;;3.85;1.85;;;4.00;99.90;;;;;;4975673;28;20526;-62
2023/01/27 03:07:50;;;;;;;7.78;1.83;;;4.00;99.90;;;;;;4960144;28;20411;-62
2023/01/27 03:10:17;;;;;;;4.70;1.95;;;4.00;99.90;;;;;;4958012;28;20058;-62
2023/01/27 03:12:44;;;;;;;2.55;1.70;;;4.00;99.90;;;;;;4958437;28;20052;-64
2023/01/27 03:18:10;;;;;;;4.20;1.50;;;4.00;99.90;;;;;;4960483;28;20051;-64
2023/01/27 03:20:37;;;;;;;4.72;1.77;;;4.00;99.90;;;;;;4993495;28;20046;-64
2023/01/27 03:23:05;;;;;;;3.47;1.80;;;4.00;99.90;;;;;;4976326;28;20100;-64
2023/01/27 03:25:32;;;;;;;3.13;1.73;;;4.00;99.90;;;;;;4974016;28;20426;-64
2023/01/27 03:27:59;;;;;;;4.88;2.08;;;4.00;99.90;;;;;;4973393;28;20434;-63
2023/01/27 03:30:28;;;;;;;5.43;1.92;;;3.90;99.90;;;;;;4956781;28;20050;-63
2023/01/27 03:32:55;;;;;;;4.10;2.25;;;4.00;99.90;;;;;;4973261;28;20057;-63
2023/01/27 03:35:22;;;;;;;2.72;1.92;;;3.90;99.90;;;;;;4972170;28;20510;-63
2023/01/27 03:46:21;;;;;;;3.75;1.70;;;3.90;99.90;;;;;;4955498;28;20129;-64
2023/01/27 03:48:52;;;;;;;6.72;1.92;;;3.90;99.90;;;;;;4956794;28;20074;-63
2023/01/27 03:51:21;;;;;;;3.17;1.77;;;3.80;99.90;;;;;;4955645;28;20062;-63
2023/01/27 03:53:48;;;;;;;5.13;2.00;;;3.80;99.90;;;;;;4956354;28;20509;-63
2023/01/27 03:56:15;;;;;;;5.72;2.10;;;3.80;99.90;;;;;;4955521;28;20435;-63
2023/01/27 03:58:42;;;;;;;3.22;2.05;;;3.80;99.90;;;;;;4972567;28;20055;-63
2023/01/27 04:01:17;;;;;;;2.85;1.48;;;3.80;99.90;;;;;;4956101;28;20191;-63
2023/01/27 04:09:20;;;;;;;3.10;1.83;;;3.70;99.90;;;;;;4972383;28;20105;-62
2023/01/27 04:11:57;;;;;;;3.55;1.50;;;3.70;99.90;;;;;;4955575;28;20550;-62
2023/01/27 04:14:27;;;;;;;2.75;1.35;;;3.70;99.90;;;;;;4956228;28;20047;-62
2023/01/27 04:16:57;;;;;;;3.67;1.85;;;3.60;99.90;;;;;;4955951;28;20419;-63
2023/01/27 04:19:24;;;;;;;2.80;1.40;;;3.60;99.90;;;;;;4972681;28;20130;-62
2023/01/27 04:21:52;;;;;;;4.55;1.95;;;3.60;99.90;;;;;;4964937;28;20050;-62
2023/01/27 04:24:25;;;;;;;4.40;1.85;;;3.60;99.90;;;;;;4971248;28;20046;-63
2023/01/27 04:26:54;;;;;;;3.28;1.42;;;3.60;99.90;;;;;;4972567;28;20059;-63
2023/01/27 04:29:22;;;;;;;6.40;2.60;;;3.60;99.90;;;;;;4953730;28;20051;-63
2023/01/27 04:31:49;;;;;;;2.60;1.63;;;3.60;99.90;;;;;;4954865;28;20077;-63
2023/01/27 04:34:18;;;;;;;3.35;1.75;;;3.70;99.90;;;;;;4956018;28;20050;-63
2023/01/27 04:36:46;;;;;;;6.22;2.13;;;3.70;99.90;;;;;;4971166;28;20558;-63
2023/01/27 04:39:13;;;;;;;4.72;1.90;;;3.70;99.90;;;;;;4970574;28;20065;-64
2023/01/27 04:41:40;;;;;;;4.32;1.75;;;3.60;99.90;;;;;;4970736;28;20492;-63
2023/01/27 04:44:07;;;;;;;4.78;1.80;;;3.70;99.90;;;;;;4958260;28;20054;-63
2023/01/27 04:46:35;;;;;;;4.25;1.90;;;3.60;99.90;;;;;;4957139;28;20046;-62
2023/01/27 04:49:02;;;;;;;2.47;1.67;;;3.70;99.90;;;;;;4955772;28;20058;-64
2023/01/27 04:51:31;;;;;;;4.43;1.88;;;3.60;99.90;;;;;;4972463;28;20051;-63
2023/01/27 04:53:58;;;;;;;2.80;1.55;;;3.60;99.90;;;;;;4972253;28;20451;-62
2023/01/27 04:56:28;;;;;;;3.65;2.33;;;3.60;99.90;;;;;;4972831;28;20051;-63
2023/01/27 04:58:57;;;;;;;3.25;1.88;;;3.60;99.90;;;;;;4971526;28;20054;-63
2023/01/27 05:01:24;;;;;;;2.83;1.70;;;3.60;99.90;;;;;;4954372;28;20058;-62
2023/01/27 05:03:51;;;;;;;7.35;2.00;;;3.60;99.90;;;;;;4948550;28;20043;-63
2023/01/27 05:06:18;;;;;;;3.13;2.13;;;3.70;99.90;;;;;;4973960;28;20072;-63
2023/01/27 05:08:46;;;;;;;5.22;2.72;;;3.60;99.90;;;;;;4958217;28;20395;-63
2023/01/27 05:11:13;;;;;;;5.50;2.33;;;3.60;99.90;;;;;;4958825;28;20055;-62
2023/01/27 05:13:40;;;;;;;4.43;2.45;;;3.60;99.90;;;;;;4967354;28;20054;-63
2023/01/27 05:16:11;;;;;;;5.93;2.03;;;3.60;99.90;;;;;;4973838;28;20070;-63
2023/01/27 05:18:38;;;;;;;4.53;2.10;;;3.60;99.90;;;;;;4966747;28;20097;-62
2023/01/27 05:21:06;;;;;;;3.20;2.13;;;3.70;99.90;;;;;;4972572;28;20054;-63
2023/01/27 05:23:36;;;;;;;7.43;2.70;;;3.60;99.90;;;;;;4973330;28;20498;-64
2023/01/27 05:26:10;;;;;;;3.17;2.22;;;3.60;99.90;;;;;;4953412;28;20395;-63
2023/01/27 05:28:39;;;;;;;6.30;2.28;;;3.60;99.90;;;;;;4970034;28;20122;-62
2023/01/27 05:31:09;;;;;;;5.20;2.33;;;3.60;99.90;;;;;;4973008;28;20142;-63
2023/01/27 05:33:36;;;;;;;5.10;2.28;;;3.60;99.90;;;;;;4971875;28;20109;-62
2023/01/27 05:36:05;;;;;;;3.60;2.17;;;3.60;99.90;;;;;;4971484;28;20750;-63
2023/01/27 05:38:32;;;;;;;5.75;2.47;;;3.60;99.90;;;;;;4971530;28;20495;-62
2023/01/27 05:41:01;;;;;;;6.25;2.30;;;3.60;99.90;;;;;;4959392;28;20054;-62
2023/01/27 05:43:31;;;;;;;5.35;1.95;;;3.60;99.90;;;;;;4951366;28;20086;-62
2023/01/27 05:46:06;;;;;;;5.30;2.13;;;3.60;99.90;;;;;;4970047;28;20049;-62
2023/01/27 05:48:35;;;;;;;2.95;1.70;;;3.60;99.90;;;;;;4972253;28;20054;-61
2023/01/27 05:51:02;;;;;;;4.43;1.88;;;3.60;99.90;;;;;;4966753;28;20139;-62
2023/01/27 05:53:29;;;;;;;4.35;1.77;;;3.60;99.90;;;;;;4972207;28;20046;-62
2023/01/27 05:55:56;;;;;;;6.50;2.10;;;3.60;99.90;;;;;;4967766;28;20050;-61
2023/01/27 05:58:24;;;;;;;2.58;1.77;;;3.60;99.90;;;;;;4971109;28;20051;-61
2023/01/27 06:00:53;;;;;;;3.50;1.63;;;3.60;99.90;;;;;;4957031;28;20054;-61
2023/01/27 06:03:20;;;;;;;2.40;1.73;;;3.60;99.90;;;;;;4972530;28;20165;-61
2023/01/27 06:05:51;;;;;;;3.42;1.60;;;3.60;99.90;;;;;;4971293;28;20506;-61
2023/01/27 06:08:18;;;;;;;3.80;1.80;;;3.60;99.90;;;;;;4953445;28;20042;-61
2023/01/27 06:10:45;;;;;;;5.07;1.77;;;3.60;99.90;;;;;;4958900;28;20063;-61
2023/01/27 06:13:12;;;;;;;2.40;1.70;;;3.50;99.90;;;;;;4970675;28;20480;-61
2023/01/27 06:15:43;;;;;;;4.85;1.85;;;3.50;99.90;;;;;;4974978;28;20078;-61
2023/01/27 06:18:13;;;;;;;6.68;2.03;;;3.50;99.90;;;;;;4952546;28;20046;-61
2023/01/27 06:20:40;;;;;;;2.03;1.65;;;3.50;99.90;;;;;;4971859;28;20110;-61
2023/01/27 06:23:08;;;;;;;5.60;2.10;;;3.50;99.90;;;;;;4968585;28;20066;-61
2023/01/27 06:25:38;;;;;;;3.88;1.77;;;3.40;99.90;;;;;;4973587;28;20058;-61
2023/01/27 06:28:06;;;;;;;4.22;1.80;;;3.40;99.90;;;;;;4969033;28;20102;-61
2023/01/27 06:30:33;;;;;;;2.55;1.42;;;3.40;99.90;;;;;;4950544;28;20563;-62
2023/01/27 06:33:00;;;;;;;3.75;1.90;;;3.40;99.90;;;;;;4949583;28;21562;-61
2023/01/27 06:35:29;;;;;;;2.25;1.48;;;3.40;99.90;;;;;;4961367;28;20042;-62
2023/01/27 06:37:57;;;;;;;3.13;1.83;;;3.40;99.90;;;;;;4988273;28;20070;-61
2023/01/27 06:40:24;;;;;;;2.75;2.03;;;3.30;99.90;;;;;;4989927;28;20054;-62
2023/01/27 06:42:51;;;;;;;2.08;1.50;;;3.30;99.90;;;;;;4989834;28;20058;-62
2023/01/27 06:45:18;;;;;;;3.05;1.60;;;3.30;99.90;;;;;;4988839;28;20201;-63
2023/01/27 06:47:45;;;;;;;5.60;1.83;;;3.40;99.90;;;;;;4989803;28;20121;-62
2023/01/27 06:50:12;;;;;;;2.20;1.60;;;3.40;99.90;;;;;;4970500;28;20050;-61
2023/01/27 06:52:40;;;;;;;5.00;2.08;;;3.30;99.90;;;;;;4990620;28;20050;-62
2023/01/27 06:55:08;;;;;;;2.40;1.45;;;3.40;99.90;;;;;;4975323;28;20050;-62
2023/01/27 06:57:35;;;;;;;2.30;1.48;;;3.30;99.90;;;;;;4988226;28;20051;-62
2023/01/27 07:00:02;;;;;;;4.35;1.80;;;3.40;99.90;;;;;;4974376;28;20053;-62
2023/01/27 07:02:29;;;;;;;2.92;1.90;;;3.40;99.90;;;;;;4975612;28;20062;-62
2023/01/27 07:04:56;;;;;;;3.30;1.60;;;3.40;99.90;;;;;;4979495;28;20047;-63
2023/01/27 07:07:23;;;;;;;4.53;1.90;;;3.40;99.90;;;;;;4976320;28;20069;-62
2023/01/27 07:09:51;;;;;;;6.45;1.83;;;3.50;99.90;;;;;;4993514;28;20407;-63
2023/01/27 07:12:18;;;;;;;4.20;1.50;;;3.40;99.90;;;;;;4973486;28;20054;-62
2023/01/27 07:14:45;;;;;;;5.75;1.75;;;3.40;99.90;;;;;;4974595;28;20073;-62
2023/01/27 07:17:12;;;;;;;4.22;1.67;;;3.40;99.90;;;;;;4973799;28;20380;-62
2023/01/27 07:19:39;;;;;;;2.40;1.45;;;3.40;99.90;;;;;;4984056;28;20046;-63
2023/01/27 07:22:05;;;;;;;8.07;2.25;;;3.40;99.90;;;;;;4975214;28;20042;-62
2023/01/27 07:24:32;;;;;;;4.00;1.52;;;3.40;99.90;;;;;;4976100;28;20054;-62
2023/01/27 07:27:01;;;;;;;4.05;1.98;;;3.40;99.90;;;;;;4992893;28;20055;-63
2023/01/27 07:29:28;;;;;;;3.40;1.73;;;3.40;99.90;;;;;;4974788;28;20198;-62
2023/01/27 07:31:55;;;;;;;4.80;1.60;;;3.40;99.90;;;;;;4992621;28;20042;-62
2023/01/27 07:34:21;;;;;;;3.25;2.30;;;3.40;99.90;;;;;;4992360;28;20514;-62
2023/01/27 07:36:48;;;;;;;8.68;2.83;;;3.40;99.90;;;;;;4965955;28;20058;-61
2023/01/27 07:39:15;;;;;;;4.22;1.70;;;3.40;99.90;;;;;;4957411;28;20054;-62
2023/01/27 07:41:42;;;;;;;3.65;1.80;;;3.40;99.90;;;;;;4986500;28;20137;-62
2023/01/27 07:44:11;;;;;;;4.20;1.90;;;3.40;99.90;;;;;;4977073;28;20043;-62
2023/01/27 07:46:38;;;;;;;6.75;2.08;;;3.50;99.90;;;;;;4957213;28;20051;-62
2023/01/27 07:49:05;;;;;;;3.50;1.90;;;3.40;99.90;;;;;;4956782;28;20053;-62
2023/01/27 07:51:32;;;;;;;3.65;1.73;;;3.40;99.90;;;;;;4958603;28;20053;-62
2023/01/27 07:53:59;;;;;;;6.55;2.10;;;3.40;99.90;;;;;;4974110;28;20491;-62
2023/01/27 07:56:27;;;;;;;5.60;1.80;;;3.50;99.90;;;;;;4974073;28;20073;-63
2023/01/27 07:58:54;;;;;;;9.90;2.47;;;3.40;99.90;;;;;;4970546;28;20051;-62
2023/01/27 08:01:23;;;;;;;4.93;2.22;;;3.50;99.90;;;;;;4972599;28;20086;-63
2023/01/27 08:03:50;;;;;;;8.40;2.20;;;3.40;99.90;;;;;;4972321;28;20062;-62
2023/01/27 08:06:17;;;;;;;6.32;2.40;;;3.40;99.90;;;;;;4980302;28;20053;-64
2023/01/27 08:08:44;;;;;;;3.50;2.00;;;3.50;99.90;;;;;;4982973;28;20499;-62
2023/01/27 08:11:13;;;;;;;4.65;2.50;;;3.50;99.90;;;;;;4975062;28;20054;-63
2023/01/27 08:13:41;;;;;;;5.80;2.20;;;3.50;99.90;;;;;;4971869;28;20499;-63
2023/01/27 08:16:12;;;;;;;4.85;2.30;;;3.50;99.90;;;;;;4955332;28;20399;-63
2023/01/27 08:18:41;;;;;;;8.52;2.38;;;3.50;99.90;;;;;;4968426;28;20507;-62
2023/01/27 08:21:11;;;;;;;5.75;2.08;;;3.60;99.90;;;;;;4956138;28;20054;-62
2023/01/27 08:23:38;;;;;;;6.63;2.38;;;3.60;99.90;;;;;;4972658;28;20581;-62
2023/01/27 08:26:06;;;;;;;8.32;3.33;;;3.70;99.90;;;;;;4956249;28;20070;-62
2023/01/27 08:28:35;;;;;;;6.72;2.40;;;3.70;99.90;;;;;;4973820;28;20117;-62
2023/01/27 08:31:06;;;;;;;3.67;2.08;;;3.70;99.90;;;;;;4975590;28;20129;-63
2023/01/27 08:33:33;;;;;;;4.32;2.63;;;3.80;99.90;;;;;;4975098;28;20047;-62
2023/01/27 08:36:07;;;;;;;8.30;2.13;;;3.90;99.90;;;;;;4971961;28;20443;-63
2023/01/27 08:38:36;;;;;;;3.88;2.03;;;3.90;99.90;;;;;;4956865;28;20530;-62
2023/01/27 08:41:04;;;;;;;4.93;2.20;;;4.00;99.90;;;;;;4974758;28;20125;-62
2023/01/27 08:43:32;;;;;;;5.43;2.30;;;4.00;99.90;;;;;;4982215;28;20055;-63
2023/01/27 08:45:59;;;;;;;5.75;2.33;;;4.00;99.90;;;;;;4958971;28;20051;-62
2023/01/27 08:48:27;;;;;;;3.38;1.80;;;4.00;99.90;;;;;;4971370;28;20137;-63
2023/01/27 08:50:55;;;;;;;4.70;2.28;;;4.00;99.90;;;;;;4953563;28;20065;-62
2023/01/27 08:53:24;;;;;;;5.72;2.53;;;4.00;99.90;;;;;;4957005;28;20507;-63
2023/01/27 08:55:53;;;;;;;3.83;2.00;;;4.10;99.90;;;;;;4988533;28;20050;-63
2023/01/27 08:58:19;;;;;;;3.35;1.90;;;4.10;99.90;;;;;;4971553;28;20080;-62
2023/01/27 09:00:47;;;;;;;3.60;2.03;;;4.00;99.90;;;;;;4970592;28;20124;-63
2023/01/27 09:03:14;;;;;;;3.80;2.47;;;4.10;99.90;;;;;;4967303;28;20050;-61
2023/01/27 09:05:41;;;;;;;4.82;2.05;;;4.10;99.90;;;;;;4956665;28;20388;-61
2023/01/27 09:08:08;;;;;;;5.30;2.60;;;4.10;99.90;;;;;;4954905;28;20058;-62
2023/01/27 09:10:39;;;;;;;5.05;2.40;;;4.00;99.90;;;;;;4960015;28;20050;-63
2023/01/27 09:13:06;;;;;;;3.38;2.10;;;4.10;99.90;;;;;;4985133;28;20054;-61
2023/01/27 09:15:34;;;;;;;3.67;2.20;;;4.10;99.90;;;;;;4970543;28;20387;-62
2023/01/27 09:18:01;;;;;;;6.97;2.55;;;4.10;99.90;;;;;;4953019;28;20140;-62
2023/01/27 09:20:28;;;;;;;7.03;2.55;;;4.20;99.90;;;;;;4966816;28;20113;-63
2023/01/27 09:22:55;;;;;;;5.85;2.80;;;4.40;99.90;;;;;;4950894;28;20489;-63
2023/01/27 09:25:22;;;;;;;5.35;2.60;;;4.50;99.90;;;;;;4951411;28;20070;-63
2023/01/27 09:27:54;;;;;;;3.88;2.22;;;4.70;99.90;;;;;;4949408;28;20047;-63
2023/01/27 09:30:21;;;;;;;6.95;2.53;;;4.70;99.90;;;;;;4955561;28;20093;-63
2023/01/27 09:32:49;;;;;;;4.30;2.35;;;4.80;99.90;;;;;;4973228;28;20046;-63
2023/01/27 09:35:16;;;;;;;4.82;2.45;;;5.00;99.90;;;;;;4972488;28;20046;-63
2023/01/27 09:37:47;;;;;;;5.28;1.92;;;5.20;99.90;;;;;;4971469;28;20058;-63
2023/01/27 09:40:26;;;;;;;4.30;1.92;;;5.10;99.90;;;;;;4956714;28;20502;-62
2023/01/27 09:43:28;;;;;;;3.53;2.45;;;5.30;99.90;;;;;;4966835;28;20400;-63
2023/01/27 09:46:13;;;;;;;3.75;1.90;;;5.80;99.90;;;;;;4948356;28;20113;-62
2023/01/27 09:48:59;;;;;;;3.70;1.90;;;7.20;99.90;;;;;;4989881;28;20058;-63
2023/01/27 09:51:34;;;;;;;3.22;1.80;;;7.50;99.90;;;;;;4974898;28;20059;-63
2023/01/27 09:54:25;;;;;;;4.53;1.83;;;7.40;99.90;;;;;;4976831;28;20065;-62
2023/01/27 09:57:00;;;;;;;4.40;1.90;;;7.20;99.90;;;;;;4976183;28;20043;-63
2023/01/27 09:59:50;;;;;;;4.32;1.77;;;7.20;99.90;;;;;;4976238;28;20043;-62
2023/01/27 10:02:29;;;;;;;5.37;1.50;;;7.30;99.90;;;;;;4975711;28;20051;-63
2023/01/27 10:05:17;;;;;;;4.60;1.75;;;7.00;99.90;;;;;;4966304;28;20291;-62
2023/01/27 10:08:00;;;;;;;3.33;1.38;;;6.70;99.90;;;;;;4975928;28;20050;-63
2023/01/27 10:10:35;;;;;;;2.97;1.30;;;6.50;99.90;;;;;;4974026;28;20093;-62
2023/01/27 10:13:16;;;;;;;2.80;1.65;;;6.40;99.90;;;;;;4959170;28;20055;-62
2023/01/27 10:15:49;;;;;;;;;;;6.10;99.90;;;;;;4976677;28;20046;-63
2023/01/27 10:18:32;;;;;;;3.28;1.55;;;6.00;99.90;;;;;;4974275;28;19930;-62
2023/01/27 10:21:06;;;;;;;2.55;1.60;;;5.70;99.90;;;;;;4976059;28;20042;-62
2023/01/27 10:23:41;;;;;;;4.40;1.70;;;5.50;99.90;;;;;;4971639;28;20051;-63
2023/01/27 10:26:19;;;;;;;2.60;1.40;;;5.20;99.90;;;;;;4972350;28;20051;-62
2023/01/27 10:28:50;;;;;;;3.58;1.77;;;5.10;99.90;;;;;;4958727;28;20043;-62
2023/01/27 10:31:25;;;;;;;4.88;1.70;;;5.00;99.90;;;;;;4974772;28;20495;-63
2023/01/27 10:33:54;;;;;;;1.80;1.30;;;5.00;99.90;;;;;;4988504;28;20046;-62
2023/01/27 10:36:29;;;;;;;2.42;1.50;;;4.90;99.90;;;;;;4958718;28;20060;-63
2023/01/27 10:39:08;;;;;;;2.13;1.40;;;4.90;99.90;;;;;;4975839;28;20053;-63
2023/01/27 10:41:46;;;;;;;2.35;1.25;;;5.00;99.90;;;;;;4975572;28;20400;-63
2023/01/27 10:44:32;;;;;;;2.00;1.48;;;4.90;99.90;;;;;;4975494;28;20058;-63
2023/01/27 10:47:09;;;;;;;2.80;1.40;;;4.90;99.90;;;;;;4993756;28;20053;-62
2023/01/27 10:49:39;;;;;;;2.60;1.70;;;4.90;99.90;;;;;;4974734;28;20062;-63
2023/01/27 10:52:11;;;;;;;3.65;2.40;;;4.80;99.90;;;;;;4993064;28;20055;-62
2023/01/27 10:54:42;;;;;;;4.63;1.58;;;4.80;99.90;;;;;;4977085;28;20054;-63
2023/01/27 10:57:15;;;;;;;2.55;1.80;;;4.80;99.90;;;;;;4976597;28;20402;-63
2023/01/27 10:59:47;;;;;;;2.50;1.70;;;4.70;99.90;;;;;;4993206;28;20061;-63
2023/01/27 11:02:23;;;;;;;2.72;1.50;;;4.70;99.90;;;;;;4971821;28;20495;-63
2023/01/27 11:04:54;;;;;;;2.08;1.50;;;4.60;99.90;;;;;;4994016;28;20088;-63
2023/01/27 11:07:22;;;;;;;2.00;1.67;;;4.60;99.90;;;;;;4992549;28;20088;-63
2023/01/27 11:09:55;;;;;;;2.55;1.70;;;4.60;99.90;;;;;;4974496;28;20049;-64
2023/01/27 11:12:30;;;;;;;2.63;1.90;;;4.60;99.90;;;;;;4962565;28;20081;-62
2023/01/27 11:14:58;;;;;;;2.92;2.10;;;4.50;99.90;;;;;;4976743;28;20081;-62
2023/01/27 11:17:30;;;;;;;3.45;2.80;;;4.50;99.90;;;;;;4993009;28;20082;-63
2023/01/27 11:20:06;;;;;;;3.22;2.53;;;4.50;99.90;;;;;;4973126;28;20058;-63
2023/01/27 11:22:37;;;;;;;4.13;2.40;;;4.40;99.90;;;;;;4984489;28;20093;-63
2023/01/27 11:25:23;;;;;;;2.72;2.50;;;4.30;99.90;;;;;;4972858;28;20056;-63
2023/01/27 11:28:02;;;;;;;6.10;3.50;;;4.30;99.90;;;;;;4971927;28;20038;-64
2023/01/27 11:30:36;;;;;;;3.05;2.55;;;4.20;99.90;;;;;;4979001;28;20406;-63
2023/01/27 11:33:14;;;;;;;4.35;2.63;;;4.30;99.90;;;;;;4968638;28;20077;-63
2023/01/27 11:35:41;;;;;;;4.00;2.75;;;4.20;99.90;;;;;;4969193;28;20070;-63
2023/01/27 11:38:12;;;;;;;3.67;2.65;;;4.20;99.90;;;;;;4978349;28;20062;-63
2023/01/27 11:40:40;;;;;;;6.20;3.13;;;4.20;99.90;;;;;;4971085;28;20494;-64
2023/01/27 11:43:07;;;;;;;3.20;2.58;;;4.20;99.90;;;;;;4981549;28;20042;-64
2023/01/27 11:45:36;;;;;;;4.13;3.10;;;4.20;99.90;;;;;;4973845;28;20050;-63
2023/01/27 11:48:09;;;;;;;4.47;3.45;;;4.10;99.90;;;;;;4977622;28;20094;-63
2023/01/27 11:50:37;;;;;;;6.45;3.45;;;4.10;99.90;;;;;;4976920;28;20050;-63
2023/01/27 11:53:12;;;;;;;3.55;3.08;;;4.10;99.90;;;;;;4979221;28;20062;-63
2023/01/27 11:55:43;;;;;;;7.05;3.63;;;4.00;99.90;;;;;;4970481;28;20054;-63
2023/01/27 11:58:20;;;;;;;4.15;2.92;;;4.10;99.90;;;;;;4989960;28;20054;-64
2023/01/27 12:00:51;;;;;;;4.68;3.35;;;4.00;99.90;;;;;;4982225;28;20055;-63
2023/01/27 12:03:26;;;;;;;4.95;3.17;;;4.00;99.90;;;;;;4986361;28;20082;-63
2023/01/27 12:05:56;;;;;;;4.65;3.50;;;4.00;99.90;;;;;;4986169;28;20050;-62
2023/01/27 12:08:37;;;;;;;6.20;3.45;;;4.00;99.90;;;;;;4968883;28;20503;-63
2023/01/27 12:11:20;;;;;;;4.80;3.13;;;4.00;99.90;;;;;;4986388;28;20046;-63
2023/01/27 12:13:53;;;;;;;5.32;3.60;;;4.00;99.90;;;;;;4969449;28;20077;-63
2023/01/27 12:16:22;;;;;;;4.75;2.92;;;4.00;99.90;;;;;;4966495;28;20058;-63
2023/01/27 12:18:57;;;;;;;4.00;3.60;;;4.00;99.90;;;;;;4980909;28;20050;-63
2023/01/27 12:21:37;;;;;;;4.05;3.40;;;3.90;99.90;;;;;;4959703;28;20054;-63
2023/01/27 12:24:07;;;;;;;5.30;3.60;;;4.00;99.90;;;;;;4978040;28;20054;-62
2023/01/27 12:26:37;;;;;;;4.38;3.40;;;4.00;99.90;;;;;;4965864;28;20047;-63
2023/01/27 12:29:07;;;;;;;4.90;3.33;;;4.00;99.90;;;;;;4970401;28;20566;-63
2023/01/27 12:31:45;;;;;;;6.20;3.42;;;4.00;99.90;;;;;;4982427;28;20046;-63
2023/01/27 12:34:27;;;;;;;4.55;3.38;;;4.00;99.90;;;;;;4982942;28;20062;-64
2023/01/27 12:36:56;;;;;;;5.85;3.38;;;4.00;99.90;;;;;;4984418;28;20450;-63
2023/01/27 12:39:30;;;;;;;4.13;3.70;;;4.00;99.90;;;;;;4983235;28;20466;-64
2023/01/27 12:41:57;;;;;;;6.05;3.67;;;4.00;99.90;;;;;;4956512;28;20078;-63
2023/01/27 12:44:26;;;;;;;4.53;3.58;;;4.00;99.90;;;;;;4973466;28;20057;-62
2023/01/27 12:47:00;;;;;;;4.93;3.90;;;4.00;99.90;;;;;;4973504;28;20492;-62
2023/01/27 12:49:34;;;;;;;4.55;3.55;;;4.00;99.90;;;;;;4973679;28;20521;-62
2023/01/27 12:52:03;;;;;;;4.55;3.83;;;4.00;99.90;;;;;;4990955;28;20047;-63
2023/01/27 12:54:32;;;;;;;7.75;3.70;;;4.00;99.90;;;;;;4974473;28;20051;-62
2023/01/27 12:57:02;;;;;;;5.32;3.67;;;4.00;99.90;;;;;;4991795;28;20042;-63
2023/01/27 12:59:30;;;;;;;3.80;3.22;;;3.90;99.90;;;;;;4973086;28;20046;-63
2023/01/27 13:02:01;;;;;;;3.13;2.53;;;4.00;99.90;;;;;;4966146;28;20054;-63
2023/01/27 13:04:28;;;;;;;4.97;3.15;;;4.10;99.90;;;;;;4959337;28;20065;-63
2023/01/27 13:07:06;;;;;;;3.90;2.92;;;3.90;99.90;;;;;;4955809;28;20043;-63
2023/01/27 13:09:36;;;;;;;6.70;3.83;;;4.00;99.90;;;;;;4969613;28;20047;-63
2023/01/27 13:12:15;;;;;;;5.00;3.17;;;3.90;99.90;;;;;;4990705;28;20038;-62
2023/01/27 13:14:43;;;;;;;5.25;3.20;;;3.90;99.90;;;;;;4974831;28;20089;-62
2023/01/27 13:17:30;;;;;;;4.28;2.90;;;3.90;99.90;;;;;;4974224;28;20517;-63
2023/01/27 13:20:00;;;;;;;5.28;3.00;;;3.90;99.90;;;;;;4977298;28;20046;-62
2023/01/27 13:22:34;;;;;;;3.40;2.75;;;3.90;99.90;;;;;;4994871;28;20042;-63
2023/01/27 13:25:04;;;;;;;3.33;2.72;;;3.90;99.90;;;;;;4995564;28;20061;-63
2023/01/27 13:27:38;;;;;;;3.47;2.72;;;3.90;99.90;;;;;;4977096;28;20363;-62
2023/01/27 13:30:14;;;;;;;3.03;2.45;;;3.90;99.90;;;;;;4995523;28;20054;-63
2023/01/27 13:32:47;;;;;;;4.75;2.67;;;3.90;99.90;;;;;;4994870;28;20047;-63
2023/01/27 13:35:19;;;;;;;3.65;2.78;;;3.90;99.90;;;;;;4959977;28;20054;-62
2023/01/27 13:37:54;;;;;;;4.68;3.53;;;4.00;99.90;;;;;;4976922;28;20054;-63